sensor_id;sensor_type;location;lat;lon;timestamp;temperature;humidity
70321;DHT22;61127;55.826;37.046;2022-07-18T00:01:58;16.40;64.11
70321;DHT22;61127;55.826;37.046;2022-07-18T00:04:27;16.39;64.53
70321;DHT22;61127;55.826;37.046;2022-07-18T00:06:53;16.41;64.54
70321;DHT22;61127;55.826;37.046;2022-07-18T00:09:19;16.41;64.30
70321;DHT22;61127;55.826;37.046;2022-07-18T00:11:49;16.39;64.34
70321;DHT22;61127;55.826;37.046;2022-07-18T00:14:16;16.40;64.50
70321;DHT22;61127;55.826;37.046;2022-07-18T00:16:42;16.42;64.58
70321;DHT22;61127;55.826;37.046;2022-07-18T00:19:08;16.44;64.61
70321;DHT22;61127;55.826;37.046;2022-07-18T00:21:34;16.45;64.53
70321;DHT22;61127;55.826;37.046;2022-07-18T00:24:02;16.46;64.91
70321;DHT22;61127;55.826;37.046;2022-07-18T00:26:28;16.46;64.85
70321;DHT22;61127;55.826;37.046;2022-07-18T00:28:54;16.46;64.98
70321;DHT22;61127;55.826;37.046;2022-07-18T00:31:21;16.47;64.84
70321;DHT22;61127;55.826;37.046;2022-07-18T00:33:48;16.49;64.98
70321;DHT22;61127;55.826;37.046;2022-07-18T00:36:14;16.49;64.92
70321;DHT22;61127;55.826;37.046;2022-07-18T00:38:40;16.49;64.68
70321;DHT22;61127;55.826;37.046;2022-07-18T00:41:06;16.47;64.80
70321;DHT22;61127;55.826;37.046;2022-07-18T00:43:34;16.47;64.74
70321;DHT22;61127;55.826;37.046;2022-07-18T00:46:00;16.46;64.82
70321;DHT22;61127;55.826;37.046;2022-07-18T00:48:26;16.46;64.72
70321;DHT22;61127;55.826;37.046;2022-07-18T00:50:52;16.42;65.04
70321;DHT22;61127;55.826;37.046;2022-07-18T00:53:18;16.40;64.99
70321;DHT22;61127;55.826;37.046;2022-07-18T00:55:47;16.34;65.00
70321;DHT22;61127;55.826;37.046;2022-07-18T00:58:14;16.33;65.01
70321;DHT22;61127;55.826;37.046;2022-07-18T01:00:41;16.36;65.24
70321;DHT22;61127;55.826;37.046;2022-07-18T01:03:26;16.41;65.24
70321;DHT22;61127;55.826;37.046;2022-07-18T01:05:53;16.39;65.30
70321;DHT22;61127;55.826;37.046;2022-07-18T01:08:19;16.39;65.36
70321;DHT22;61127;55.826;37.046;2022-07-18T01:10:45;16.34;65.33
70321;DHT22;61127;55.826;37.046;2022-07-18T01:13:12;16.32;65.33
70321;DHT22;61127;55.826;37.046;2022-07-18T01:15:37;16.30;65.43
70321;DHT22;61127;55.826;37.046;2022-07-18T01:18:04;16.28;65.40
70321;DHT22;61127;55.826;37.046;2022-07-18T01:20:31;16.27;65.41
70321;DHT22;61127;55.826;37.046;2022-07-18T01:22:59;16.27;65.56
70321;DHT22;61127;55.826;37.046;2022-07-18T01:25:26;16.25;65.68
70321;DHT22;61127;55.826;37.046;2022-07-18T01:27:52;16.24;65.75
70321;DHT22;61127;55.826;37.046;2022-07-18T01:30:19;16.27;65.57
70321;DHT22;61127;55.826;37.046;2022-07-18T01:32:46;16.20;65.69
70321;DHT22;61127;55.826;37.046;2022-07-18T01:35:21;16.13;65.87
70321;DHT22;61127;55.826;37.046;2022-07-18T01:37:53;16.12;65.95
70321;DHT22;61127;55.826;37.046;2022-07-18T01:40:19;16.14;65.89
70321;DHT22;61127;55.826;37.046;2022-07-18T01:42:47;16.20;65.91
70321;DHT22;61127;55.826;37.046;2022-07-18T01:45:14;16.25;65.81
70321;DHT22;61127;55.826;37.046;2022-07-18T01:47:41;16.28;65.74
70321;DHT22;61127;55.826;37.046;2022-07-18T01:50:09;16.31;65.91
70321;DHT22;61127;55.826;37.046;2022-07-18T01:52:38;16.31;65.85
70321;DHT22;61127;55.826;37.046;2022-07-18T01:55:07;16.33;65.81
70321;DHT22;61127;55.826;37.046;2022-07-18T01:57:33;16.32;65.77
70321;DHT22;61127;55.826;37.046;2022-07-18T02:00:00;16.33;65.74
70321;DHT22;61127;55.826;37.046;2022-07-18T02:02:25;16.33;65.66
70321;DHT22;61127;55.826;37.046;2022-07-18T02:04:52;16.33;65.82
70321;DHT22;61127;55.826;37.046;2022-07-18T02:07:34;16.31;65.96
70321;DHT22;61127;55.826;37.046;2022-07-18T02:10:03;16.33;65.56
70321;DHT22;61127;55.826;37.046;2022-07-18T02:12:31;16.36;65.38
70321;DHT22;61127;55.826;37.046;2022-07-18T02:14:57;16.37;65.26
70321;DHT22;61127;55.826;37.046;2022-07-18T02:17:23;16.43;65.40
70321;DHT22;61127;55.826;37.046;2022-07-18T02:19:49;16.49;65.42
70321;DHT22;61127;55.826;37.046;2022-07-18T02:22:16;16.61;65.08
70321;DHT22;61127;55.826;37.046;2022-07-18T02:24:42;16.55;65.08
70321;DHT22;61127;55.826;37.046;2022-07-18T02:27:09;16.50;65.37
70321;DHT22;61127;55.826;37.046;2022-07-18T02:29:36;16.58;65.10
70321;DHT22;61127;55.826;37.046;2022-07-18T02:32:02;16.62;65.05
70321;DHT22;61127;55.826;37.046;2022-07-18T02:34:28;16.70;64.97
70321;DHT22;61127;55.826;37.046;2022-07-18T02:36:54;16.82;64.89
70321;DHT22;61127;55.826;37.046;2022-07-18T02:39:20;16.89;64.62
70321;DHT22;61127;55.826;37.046;2022-07-18T02:41:47;16.89;64.52
70321;DHT22;61127;55.826;37.046;2022-07-18T02:44:14;16.86;64.63
70321;DHT22;61127;55.826;37.046;2022-07-18T02:46:40;16.92;64.50
70321;DHT22;61127;55.826;37.046;2022-07-18T02:49:07;17.00;64.58
70321;DHT22;61127;55.826;37.046;2022-07-18T02:51:33;17.09;64.30
70321;DHT22;61127;55.826;37.046;2022-07-18T02:54:01;17.14;64.30
70321;DHT22;61127;55.826;37.046;2022-07-18T02:56:27;17.18;64.24
70321;DHT22;61127;55.826;37.046;2022-07-18T02:58:53;17.24;64.40
70321;DHT22;61127;55.826;37.046;2022-07-18T03:01:19;17.34;64.18
70321;DHT22;61127;55.826;37.046;2022-07-18T03:03:46;17.43;63.97
70321;DHT22;61127;55.826;37.046;2022-07-18T03:06:12;17.54;63.66
70321;DHT22;61127;55.826;37.046;2022-07-18T03:08:38;17.60;63.44
70321;DHT22;61127;55.826;37.046;2022-07-18T03:11:04;17.59;63.41
70321;DHT22;61127;55.826;37.046;2022-07-18T03:13:32;17.67;62.87
70321;DHT22;61127;55.826;37.046;2022-07-18T03:15:59;17.63;62.77
70321;DHT22;61127;55.826;37.046;2022-07-18T03:18:24;17.76;62.73
70321;DHT22;61127;55.826;37.046;2022-07-18T03:20:52;17.94;62.37
70321;DHT22;61127;55.826;37.046;2022-07-18T03:23:19;18.17;62.15
70321;DHT22;61127;55.826;37.046;2022-07-18T03:25:45;18.33;61.37
70321;DHT22;61127;55.826;37.046;2022-07-18T03:28:11;18.25;60.99
70321;DHT22;61127;55.826;37.046;2022-07-18T03:30:37;18.17;61.13
70321;DHT22;61127;55.826;37.046;2022-07-18T03:33:03;18.14;61.31
70321;DHT22;61127;55.826;37.046;2022-07-18T03:35:30;18.25;61.30
70321;DHT22;61127;55.826;37.046;2022-07-18T03:37:55;18.23;61.05
70321;DHT22;61127;55.826;37.046;2022-07-18T03:40:22;18.13;60.97
70321;DHT22;61127;55.826;37.046;2022-07-18T03:42:48;18.04;61.28
70321;DHT22;61127;55.826;37.046;2022-07-18T03:45:15;17.91;61.21
70321;DHT22;61127;55.826;37.046;2022-07-18T03:47:40;17.92;61.63
70321;DHT22;61127;55.826;37.046;2022-07-18T03:50:07;18.05;61.54
70321;DHT22;61127;55.826;37.046;2022-07-18T03:52:34;18.19;61.57
70321;DHT22;61127;55.826;37.046;2022-07-18T03:55:00;18.30;61.15
70321;DHT22;61127;55.826;37.046;2022-07-18T03:57:29;18.39;60.81
70321;DHT22;61127;55.826;37.046;2022-07-18T03:59:55;18.37;60.57
70321;DHT22;61127;55.826;37.046;2022-07-18T04:02:22;18.36;60.92
70321;DHT22;61127;55.826;37.046;2022-07-18T04:04:48;18.37;60.81
70321;DHT22;61127;55.826;37.046;2022-07-18T04:07:14;18.46;60.48
70321;DHT22;61127;55.826;37.046;2022-07-18T04:09:40;18.62;60.25
70321;DHT22;61127;55.826;37.046;2022-07-18T04:12:06;18.73;60.14
70321;DHT22;61127;55.826;37.046;2022-07-18T04:14:32;18.86;59.99
70321;DHT22;61127;55.826;37.046;2022-07-18T04:16:58;18.91;59.28
70321;DHT22;61127;55.826;37.046;2022-07-18T04:19:24;18.74;59.57
70321;DHT22;61127;55.826;37.046;2022-07-18T04:21:51;18.78;59.72
70321;DHT22;61127;55.826;37.046;2022-07-18T04:24:18;18.88;59.49
70321;DHT22;61127;55.826;37.046;2022-07-18T04:26:44;18.84;59.28
70321;DHT22;61127;55.826;37.046;2022-07-18T04:29:10;18.88;59.68
70321;DHT22;61127;55.826;37.046;2022-07-18T04:31:37;19.07;59.63
70321;DHT22;61127;55.826;37.046;2022-07-18T04:34:04;19.23;59.35
70321;DHT22;61127;55.826;37.046;2022-07-18T04:36:30;19.41;59.37
70321;DHT22;61127;55.826;37.046;2022-07-18T04:38:56;19.57;58.67
70321;DHT22;61127;55.826;37.046;2022-07-18T04:41:22;19.70;58.09
70321;DHT22;61127;55.826;37.046;2022-07-18T04:43:52;19.74;58.29
70321;DHT22;61127;55.826;37.046;2022-07-18T04:46:18;19.95;58.18
70321;DHT22;61127;55.826;37.046;2022-07-18T04:48:43;20.14;57.65
70321;DHT22;61127;55.826;37.046;2022-07-18T04:51:10;20.31;57.56
70321;DHT22;61127;55.826;37.046;2022-07-18T04:53:38;20.47;56.79
70321;DHT22;61127;55.826;37.046;2022-07-18T04:56:04;20.60;56.76
70321;DHT22;61127;55.826;37.046;2022-07-18T04:58:30;20.86;56.51
70321;DHT22;61127;55.826;37.046;2022-07-18T05:00:56;21.21;55.79
70321;DHT22;61127;55.826;37.046;2022-07-18T05:03:23;21.33;55.39
70321;DHT22;61127;55.826;37.046;2022-07-18T05:05:50;21.46;55.33
70321;DHT22;61127;55.826;37.046;2022-07-18T05:08:16;21.58;54.82
70321;DHT22;61127;55.826;37.046;2022-07-18T05:10:42;21.67;54.82
70321;DHT22;61127;55.826;37.046;2022-07-18T05:13:09;21.83;54.75
70321;DHT22;61127;55.826;37.046;2022-07-18T05:15:35;21.97;54.20
70321;DHT22;61127;55.826;37.046;2022-07-18T05:18:01;22.16;54.16
70321;DHT22;61127;55.826;37.046;2022-07-18T05:20:27;22.41;53.65
70321;DHT22;61127;55.826;37.046;2022-07-18T05:22:54;22.63;53.27
70321;DHT22;61127;55.826;37.046;2022-07-18T05:25:21;22.87;53.13
70321;DHT22;61127;55.826;37.046;2022-07-18T05:27:51;23.09;52.31
70321;DHT22;61127;55.826;37.046;2022-07-18T05:30:18;23.37;52.11
70321;DHT22;61127;55.826;37.046;2022-07-18T05:32:47;23.32;51.78
70321;DHT22;61127;55.826;37.046;2022-07-18T05:35:14;23.47;51.63
70321;DHT22;61127;55.826;37.046;2022-07-18T05:37:40;23.57;51.57
70321;DHT22;61127;55.826;37.046;2022-07-18T05:40:08;23.59;50.79
70321;DHT22;61127;55.826;37.046;2022-07-18T05:42:37;23.62;50.59
70321;DHT22;61127;55.826;37.046;2022-07-18T05:45:04;23.77;50.99
70321;DHT22;61127;55.826;37.046;2022-07-18T05:47:31;23.94;50.84
70321;DHT22;61127;55.826;37.046;2022-07-18T05:49:57;24.06;50.30
70321;DHT22;61127;55.826;37.046;2022-07-18T05:52:24;24.05;50.03
70321;DHT22;61127;55.826;37.046;2022-07-18T05:54:50;24.05;50.27
70321;DHT22;61127;55.826;37.046;2022-07-18T05:57:16;24.08;50.08
70321;DHT22;61127;55.826;37.046;2022-07-18T05:59:43;24.04;50.14
70321;DHT22;61127;55.826;37.046;2022-07-18T06:02:10;23.90;50.02
70321;DHT22;61127;55.826;37.046;2022-07-18T06:04:37;23.74;50.07
70321;DHT22;61127;55.826;37.046;2022-07-18T06:07:03;23.79;50.25
70321;DHT22;61127;55.826;37.046;2022-07-18T06:09:29;23.84;50.16
70321;DHT22;61127;55.826;37.046;2022-07-18T06:12:00;23.94;50.05
70321;DHT22;61127;55.826;37.046;2022-07-18T06:14:27;24.06;49.53
70321;DHT22;61127;55.826;37.046;2022-07-18T06:16:53;23.88;49.58
70321;DHT22;61127;55.826;37.046;2022-07-18T06:19:19;23.81;49.79
70321;DHT22;61127;55.826;37.046;2022-07-18T06:21:46;23.90;49.80
70321;DHT22;61127;55.826;37.046;2022-07-18T06:24:13;23.97;49.56
70321;DHT22;61127;55.826;37.046;2022-07-18T06:26:39;24.05;49.58
70321;DHT22;61127;55.826;37.046;2022-07-18T06:29:05;24.18;49.46
70321;DHT22;61127;55.826;37.046;2022-07-18T06:31:31;24.33;49.16
70321;DHT22;61127;55.826;37.046;2022-07-18T06:33:57;24.43;49.07
70321;DHT22;61127;55.826;37.046;2022-07-18T06:36:24;24.62;48.68
70321;DHT22;61127;55.826;37.046;2022-07-18T06:38:51;24.84;48.53
70321;DHT22;61127;55.826;37.046;2022-07-18T06:41:18;25.09;48.04
70321;DHT22;61127;55.826;37.046;2022-07-18T06:43:45;25.33;47.93
70321;DHT22;61127;55.826;37.046;2022-07-18T06:46:11;25.45;47.15
70321;DHT22;61127;55.826;37.046;2022-07-18T06:48:37;25.54;46.76
70321;DHT22;61127;55.826;37.046;2022-07-18T06:51:05;25.64;46.44
70321;DHT22;61127;55.826;37.046;2022-07-18T06:53:32;25.69;46.13
70321;DHT22;61127;55.826;37.046;2022-07-18T06:55:59;25.60;46.15
70321;DHT22;61127;55.826;37.046;2022-07-18T06:58:29;25.59;46.60
70321;DHT22;61127;55.826;37.046;2022-07-18T07:00:56;25.76;46.33
70321;DHT22;61127;55.826;37.046;2022-07-18T07:03:25;25.82;45.74
70321;DHT22;61127;55.826;37.046;2022-07-18T07:05:51;26.45;45.41
70321;DHT22;61127;55.826;37.046;2022-07-18T07:08:17;26.81;44.21
70321;DHT22;61127;55.826;37.046;2022-07-18T07:10:43;27.24;43.85
70321;DHT22;61127;55.826;37.046;2022-07-18T07:13:10;27.75;42.81
70321;DHT22;61127;55.826;37.046;2022-07-18T07:15:36;27.63;42.46
70321;DHT22;61127;55.826;37.046;2022-07-18T07:18:02;27.23;42.90
70321;DHT22;61127;55.826;37.046;2022-07-18T07:20:29;27.02;42.91
70321;DHT22;61127;55.826;37.046;2022-07-18T07:22:56;27.36;42.74
70321;DHT22;61127;55.826;37.046;2022-07-18T07:25:24;27.29;42.39
70321;DHT22;61127;55.826;37.046;2022-07-18T07:27:52;26.84;42.60
70321;DHT22;61127;55.826;37.046;2022-07-18T07:30:20;26.71;42.16
70321;DHT22;61127;55.826;37.046;2022-07-18T07:32:49;26.89;42.09
70321;DHT22;61127;55.826;37.046;2022-07-18T07:35:17;27.01;42.23
70321;DHT22;61127;55.826;37.046;2022-07-18T07:37:45;26.92;42.03
70321;DHT22;61127;55.826;37.046;2022-07-18T07:40:13;27.22;41.72
70321;DHT22;61127;55.826;37.046;2022-07-18T07:42:40;27.71;41.12
70321;DHT22;61127;55.826;37.046;2022-07-18T07:45:07;28.16;40.17
70321;DHT22;61127;55.826;37.046;2022-07-18T07:47:34;28.49;39.94
70321;DHT22;61127;55.826;37.046;2022-07-18T07:50:01;29.02;40.31
70321;DHT22;61127;55.826;37.046;2022-07-18T07:52:29;30.24;38.45
70321;DHT22;61127;55.826;37.046;2022-07-18T07:54:56;30.97;37.90
70321;DHT22;61127;55.826;37.046;2022-07-18T07:57:22;31.76;37.21
70321;DHT22;61127;55.826;37.046;2022-07-18T07:59:48;32.46;36.11
70321;DHT22;61127;55.826;37.046;2022-07-18T08:02:16;32.77;34.35
70321;DHT22;61127;55.826;37.046;2022-07-18T08:04:42;33.42;35.21
70321;DHT22;61127;55.826;37.046;2022-07-18T08:07:08;34.38;33.96
70321;DHT22;61127;55.826;37.046;2022-07-18T08:09:35;35.21;33.45
70321;DHT22;61127;55.826;37.046;2022-07-18T08:12:02;35.80;31.56
70321;DHT22;61127;55.826;37.046;2022-07-18T08:14:30;36.21;30.62
70321;DHT22;61127;55.826;37.046;2022-07-18T08:16:59;35.99;30.07
70321;DHT22;61127;55.826;37.046;2022-07-18T08:19:25;36.54;29.45
70321;DHT22;61127;55.826;37.046;2022-07-18T08:21:51;36.42;28.99
70321;DHT22;61127;55.826;37.046;2022-07-18T08:24:19;36.33;28.82
70321;DHT22;61127;55.826;37.046;2022-07-18T08:26:45;36.46;29.18
70321;DHT22;61127;55.826;37.046;2022-07-18T08:29:12;36.27;28.86
70321;DHT22;61127;55.826;37.046;2022-07-18T08:31:38;36.75;29.37
70321;DHT22;61127;55.826;37.046;2022-07-18T08:34:05;36.84;28.40
70321;DHT22;61127;55.826;37.046;2022-07-18T08:36:32;37.57;29.15
70321;DHT22;61127;55.826;37.046;2022-07-18T08:38:58;37.61;27.13
70321;DHT22;61127;55.826;37.046;2022-07-18T08:41:24;37.32;27.60
70321;DHT22;61127;55.826;37.046;2022-07-18T08:43:52;35.74;25.19
70321;DHT22;61127;55.826;37.046;2022-07-18T08:46:20;33.97;27.36
70321;DHT22;61127;55.826;37.046;2022-07-18T08:48:50;33.55;28.09
70321;DHT22;61127;55.826;37.046;2022-07-18T08:51:18;34.09;28.55
70321;DHT22;61127;55.826;37.046;2022-07-18T08:53:50;34.80;27.00
70321;DHT22;61127;55.826;37.046;2022-07-18T08:56:17;34.25;28.09
70321;DHT22;61127;55.826;37.046;2022-07-18T08:58:43;33.59;27.79
70321;DHT22;61127;55.826;37.046;2022-07-18T09:01:09;33.05;28.27
70321;DHT22;61127;55.826;37.046;2022-07-18T09:03:39;32.82;27.97
70321;DHT22;61127;55.826;37.046;2022-07-18T09:06:08;32.57;28.81
70321;DHT22;61127;55.826;37.046;2022-07-18T09:08:35;32.26;29.35
70321;DHT22;61127;55.826;37.046;2022-07-18T09:11:09;31.99;29.00
70321;DHT22;61127;55.826;37.046;2022-07-18T09:13:40;31.73;29.41
70321;DHT22;61127;55.826;37.046;2022-07-18T09:16:14;31.25;29.23
70321;DHT22;61127;55.826;37.046;2022-07-18T09:18:46;30.68;30.15
70321;DHT22;61127;55.826;37.046;2022-07-18T09:21:18;30.62;31.35
70321;DHT22;61127;55.826;37.046;2022-07-18T09:23:47;32.33;31.11
70321;DHT22;61127;55.826;37.046;2022-07-18T09:29:02;30.76;29.93
70321;DHT22;61127;55.826;37.046;2022-07-18T09:31:28;29.33;30.54
70321;DHT22;61127;55.826;37.046;2022-07-18T09:33:58;28.25;30.84
70321;DHT22;61127;55.826;37.046;2022-07-18T09:36:25;27.44;32.24
70321;DHT22;61127;55.826;37.046;2022-07-18T09:38:52;26.50;32.55
70321;DHT22;61127;55.826;37.046;2022-07-18T09:41:24;25.99;33.30
70321;DHT22;61127;55.826;37.046;2022-07-18T09:43:52;25.60;33.57
70321;DHT22;61127;55.826;37.046;2022-07-18T09:46:17;25.18;34.15
70321;DHT22;61127;55.826;37.046;2022-07-18T09:48:44;24.76;34.59
70321;DHT22;61127;55.826;37.046;2022-07-18T09:51:10;24.50;34.91
70321;DHT22;61127;55.826;37.046;2022-07-18T09:53:39;24.40;35.19
70321;DHT22;61127;55.826;37.046;2022-07-18T09:56:22;24.18;35.54
70321;DHT22;61127;55.826;37.046;2022-07-18T09:58:55;24.03;36.21
70321;DHT22;61127;55.826;37.046;2022-07-18T10:01:22;23.87;36.56
70321;DHT22;61127;55.826;37.046;2022-07-18T10:03:50;23.77;37.08
70321;DHT22;61127;55.826;37.046;2022-07-18T10:06:17;23.77;37.35
70321;DHT22;61127;55.826;37.046;2022-07-18T10:08:44;23.75;37.32
70321;DHT22;61127;55.826;37.046;2022-07-18T10:11:13;23.74;37.49
70321;DHT22;61127;55.826;37.046;2022-07-18T10:13:40;23.70;37.55
70321;DHT22;61127;55.826;37.046;2022-07-18T10:16:06;23.55;37.94
70321;DHT22;61127;55.826;37.046;2022-07-18T10:18:34;23.39;38.40
70321;DHT22;61127;55.826;37.046;2022-07-18T10:23:31;23.16;39.05
70321;DHT22;61127;55.826;37.046;2022-07-18T10:26:11;23.11;39.49
70321;DHT22;61127;55.826;37.046;2022-07-18T10:36:35;23.08;40.90
70321;DHT22;61127;55.826;37.046;2022-07-18T10:39:16;23.17;40.81
70321;DHT22;61127;55.826;37.046;2022-07-18T10:47:08;23.43;40.94
70321;DHT22;61127;55.826;37.046;2022-07-18T11:00:13;27.89;36.72
70321;DHT22;61127;55.826;37.046;2022-07-18T11:02:47;32.44;32.79
70321;DHT22;61127;55.826;37.046;2022-07-18T11:21:32;34.35;26.67
70321;DHT22;61127;55.826;37.046;2022-07-18T11:24:07;33.47;27.95
70321;DHT22;61127;55.826;37.046;2022-07-18T11:26:44;33.29;28.52
70321;DHT22;61127;55.826;37.046;2022-07-18T11:29:13;33.23;28.21
70321;DHT22;61127;55.826;37.046;2022-07-18T11:31:54;32.79;28.44
70321;DHT22;61127;55.826;37.046;2022-07-18T11:34:22;32.63;28.76
70321;DHT22;61127;55.826;37.046;2022-07-18T11:36:49;32.05;29.26
70321;DHT22;61127;55.826;37.046;2022-07-18T11:39:27;31.20;29.16
70321;DHT22;61127;55.826;37.046;2022-07-18T11:41:55;30.93;29.92
70321;DHT22;61127;55.826;37.046;2022-07-18T11:44:21;30.84;29.89
70321;DHT22;61127;55.826;37.046;2022-07-18T11:47:11;31.33;30.05
70321;DHT22;61127;55.826;37.046;2022-07-18T11:49:38;31.45;29.32
70321;DHT22;61127;55.826;37.046;2022-07-18T11:52:05;30.48;30.25
70321;DHT22;61127;55.826;37.046;2022-07-18T11:54:32;29.08;31.37
70321;DHT22;61127;55.826;37.046;2022-07-18T11:56:58;27.79;32.70
70321;DHT22;61127;55.826;37.046;2022-07-18T11:59:40;26.52;34.60
70321;DHT22;61127;55.826;37.046;2022-07-18T12:02:08;25.82;36.27
70321;DHT22;61127;55.826;37.046;2022-07-18T12:04:34;25.31;36.84
70321;DHT22;61127;55.826;37.046;2022-07-18T12:07:19;24.84;37.50
70321;DHT22;61127;55.826;37.046;2022-07-18T12:09:48;24.44;37.78
70321;DHT22;61127;55.826;37.046;2022-07-18T12:12:21;24.05;39.36
70321;DHT22;61127;55.826;37.046;2022-07-18T12:15:01;23.72;40.81
70321;DHT22;61127;55.826;37.046;2022-07-18T12:17:30;23.44;41.05
70321;DHT22;61127;55.826;37.046;2022-07-18T12:20:12;23.23;41.68
70321;DHT22;61127;55.826;37.046;2022-07-18T12:23:08;23.07;43.44
70321;DHT22;61127;55.826;37.046;2022-07-18T12:25:41;22.95;43.42
70321;DHT22;61127;55.826;37.046;2022-07-18T12:28:18;22.79;44.06
70321;DHT22;61127;55.826;37.046;2022-07-18T12:30:47;22.69;44.05
70321;DHT22;61127;55.826;37.046;2022-07-18T12:33:15;22.72;44.96
70321;DHT22;61127;55.826;37.046;2022-07-18T12:35:43;22.76;44.71
70321;DHT22;61127;55.826;37.046;2022-07-18T12:38:16;22.79;45.39
70321;DHT22;61127;55.826;37.046;2022-07-18T12:40:47;22.80;44.34
70321;DHT22;61127;55.826;37.046;2022-07-18T12:43:37;22.68;45.64
70321;DHT22;61127;55.826;37.046;2022-07-18T12:46:07;22.54;45.13
70321;DHT22;61127;55.826;37.046;2022-07-18T12:48:35;22.57;45.58
70321;DHT22;61127;55.826;37.046;2022-07-18T12:51:10;22.76;46.47
70321;DHT22;61127;55.826;37.046;2022-07-18T12:53:40;23.03;45.75
70321;DHT22;61127;55.826;37.046;2022-07-18T12:56:06;23.35;45.26
70321;DHT22;61127;55.826;37.046;2022-07-18T12:58:32;24.18;44.51
70321;DHT22;61127;55.826;37.046;2022-07-18T13:00:59;26.37;42.63
70321;DHT22;61127;55.826;37.046;2022-07-18T13:03:27;29.60;39.12
70321;DHT22;61127;55.826;37.046;2022-07-18T13:05:53;32.96;34.76
70321;DHT22;61127;55.826;37.046;2022-07-18T13:08:19;35.78;32.12
70321;DHT22;61127;55.826;37.046;2022-07-18T13:10:45;37.49;29.64
70321;DHT22;61127;55.826;37.046;2022-07-18T13:13:12;35.87;29.31
70321;DHT22;61127;55.826;37.046;2022-07-18T13:15:39;36.69;29.56
70321;DHT22;61127;55.826;37.046;2022-07-18T13:18:05;38.30;27.59
70321;DHT22;61127;55.826;37.046;2022-07-18T13:20:31;38.00;25.68
70321;DHT22;61127;55.826;37.046;2022-07-18T13:22:59;34.78;27.58
70321;DHT22;61127;55.826;37.046;2022-07-18T13:25:27;32.49;29.31
70321;DHT22;61127;55.826;37.046;2022-07-18T13:27:53;33.40;29.42
70321;DHT22;61127;55.826;37.046;2022-07-18T13:30:19;32.38;28.73
70321;DHT22;61127;55.826;37.046;2022-07-18T13:32:46;30.35;30.29
70321;DHT22;61127;55.826;37.046;2022-07-18T13:35:14;29.12;31.96
70321;DHT22;61127;55.826;37.046;2022-07-18T13:37:40;28.23;33.52
70321;DHT22;61127;55.826;37.046;2022-07-18T13:40:06;27.46;34.31
70321;DHT22;61127;55.826;37.046;2022-07-18T13:42:33;26.78;35.09
70321;DHT22;61127;55.826;37.046;2022-07-18T13:44:59;25.99;35.90
70321;DHT22;61127;55.826;37.046;2022-07-18T13:47:25;25.46;36.61
70321;DHT22;61127;55.826;37.046;2022-07-18T13:49:51;24.78;37.96
70321;DHT22;61127;55.826;37.046;2022-07-18T13:52:18;24.18;38.66
70321;DHT22;61127;55.826;37.046;2022-07-18T13:54:45;23.99;39.48
70321;DHT22;61127;55.826;37.046;2022-07-18T13:57:13;23.82;39.62
70321;DHT22;61127;55.826;37.046;2022-07-18T13:59:39;24.45;39.12
70321;DHT22;61127;55.826;37.046;2022-07-18T14:02:07;25.84;37.95
70321;DHT22;61127;55.826;37.046;2022-07-18T14:04:33;25.54;37.56
70321;DHT22;61127;55.826;37.046;2022-07-18T14:06:59;25.04;38.47
70321;DHT22;61127;55.826;37.046;2022-07-18T14:09:26;24.68;39.30
70321;DHT22;61127;55.826;37.046;2022-07-18T14:11:52;24.23;39.75
70321;DHT22;61127;55.826;37.046;2022-07-18T14:14:19;23.72;40.01
70321;DHT22;61127;55.826;37.046;2022-07-18T14:16:45;23.46;40.26
70321;DHT22;61127;55.826;37.046;2022-07-18T14:19:11;23.05;40.88
70321;DHT22;61127;55.826;37.046;2022-07-18T14:21:38;22.93;41.12
70321;DHT22;61127;55.826;37.046;2022-07-18T14:24:05;23.00;40.65
70321;DHT22;61127;55.826;37.046;2022-07-18T14:26:31;22.82;41.78
70321;DHT22;61127;55.826;37.046;2022-07-18T14:28:57;22.84;41.96
70321;DHT22;61127;55.826;37.046;2022-07-18T14:31:23;22.84;42.19
70321;DHT22;61127;55.826;37.046;2022-07-18T14:33:49;22.91;43.16
70321;DHT22;61127;55.826;37.046;2022-07-18T14:36:15;22.98;42.39
70321;DHT22;61127;55.826;37.046;2022-07-18T14:38:41;23.06;42.43
70321;DHT22;61127;55.826;37.046;2022-07-18T14:41:08;22.99;42.48
70321;DHT22;61127;55.826;37.046;2022-07-18T14:43:35;22.79;43.05
70321;DHT22;61127;55.826;37.046;2022-07-18T14:46:00;22.62;43.31
70321;DHT22;61127;55.826;37.046;2022-07-18T14:48:27;22.52;42.99
70321;DHT22;61127;55.826;37.046;2022-07-18T14:50:52;22.28;43.13
70321;DHT22;61127;55.826;37.046;2022-07-18T14:53:21;22.16;43.67
70321;DHT22;61127;55.826;37.046;2022-07-18T14:55:46;22.19;43.29
70321;DHT22;61127;55.826;37.046;2022-07-18T14:58:13;22.11;42.96
70321;DHT22;61127;55.826;37.046;2022-07-18T15:00:39;21.93;43.44
70321;DHT22;61127;55.826;37.046;2022-07-18T15:03:06;21.77;43.87
70321;DHT22;61127;55.826;37.046;2022-07-18T15:05:33;21.75;44.04
70321;DHT22;61127;55.826;37.046;2022-07-18T15:07:59;21.67;43.96
70321;DHT22;61127;55.826;37.046;2022-07-18T15:10:25;21.60;43.80
70321;DHT22;61127;55.826;37.046;2022-07-18T15:12:51;21.55;43.89
70321;DHT22;61127;55.826;37.046;2022-07-18T15:15:18;21.52;44.61
70321;DHT22;61127;55.826;37.046;2022-07-18T15:17:44;21.60;44.56
70321;DHT22;61127;55.826;37.046;2022-07-18T15:20:11;21.64;44.79
70321;DHT22;61127;55.826;37.046;2022-07-18T15:22:38;21.72;44.87
70321;DHT22;61127;55.826;37.046;2022-07-18T15:25:05;21.75;44.86
70321;DHT22;61127;55.826;37.046;2022-07-18T15:27:31;21.77;44.82
70321;DHT22;61127;55.826;37.046;2022-07-18T15:29:58;21.76;45.08
70321;DHT22;61127;55.826;37.046;2022-07-18T15:32:26;21.74;45.12
70321;DHT22;61127;55.826;37.046;2022-07-18T15:34:52;21.66;44.95
70321;DHT22;61127;55.826;37.046;2022-07-18T15:37:18;21.50;45.03
70321;DHT22;61127;55.826;37.046;2022-07-18T15:39:44;21.40;45.12
70321;DHT22;61127;55.826;37.046;2022-07-18T15:42:11;21.38;45.29
70321;DHT22;61127;55.826;37.046;2022-07-18T15:44:37;21.36;45.45
70321;DHT22;61127;55.826;37.046;2022-07-18T15:47:08;21.42;45.67
70321;DHT22;61127;55.826;37.046;2022-07-18T15:49:35;21.47;45.77
70321;DHT22;61127;55.826;37.046;2022-07-18T15:52:03;21.58;45.70
70321;DHT22;61127;55.826;37.046;2022-07-18T15:54:32;21.64;45.75
70321;DHT22;61127;55.826;37.046;2022-07-18T15:56:59;21.72;45.86
70321;DHT22;61127;55.826;37.046;2022-07-18T15:59:24;21.75;45.21
70321;DHT22;61127;55.826;37.046;2022-07-18T16:01:51;21.76;45.73
70321;DHT22;61127;55.826;37.046;2022-07-18T16:04:18;21.74;45.48